createdAt,value
2023-02-03T00:02:18.378Z,3.02
2023-02-03T00:04:44.843Z,2.99
2023-02-03T00:07:12.651Z,3.01
2023-02-03T00:09:39.492Z,2.95
2023-02-03T00:12:06.456Z,2.96
2023-02-03T00:14:33.634Z,2.91
2023-02-03T00:17:00.391Z,2.94
2023-02-03T00:19:27.416Z,3.11
2023-02-03T00:21:54.814Z,3.05
2023-02-03T00:24:23.989Z,3.02
2023-02-03T00:26:51.410Z,3.00
2023-02-03T00:29:18.690Z,3.09
2023-02-03T00:31:46.107Z,3.04
2023-02-03T00:34:13.689Z,3.11
2023-02-03T00:36:43.274Z,3.06
2023-02-03T00:39:09.773Z,3.08
2023-02-03T00:41:36.839Z,3.06
2023-02-03T00:44:05.623Z,3.17
2023-02-03T00:46:32.172Z,3.08
2023-02-03T00:48:58.797Z,3.09
2023-02-03T00:51:25.753Z,2.99
2023-02-03T00:53:52.558Z,2.89
2023-02-03T00:56:20.236Z,3.01
2023-02-03T00:58:47.716Z,3.05
2023-02-03T01:01:14.812Z,3.02
2023-02-03T01:03:41.415Z,2.99
2023-02-03T01:06:19.610Z,2.97
2023-02-03T01:08:46.455Z,2.99
2023-02-03T01:11:17.254Z,2.88
2023-02-03T01:13:44.523Z,2.98
2023-02-03T01:16:13.190Z,3.01
2023-02-03T01:18:40.927Z,2.90
2023-02-03T01:24:49.026Z,2.97
2023-02-03T01:27:15.626Z,2.84
2023-02-03T01:29:42.042Z,2.92
2023-02-03T01:35:49.662Z,2.82
2023-02-03T01:38:16.077Z,2.69
2023-02-03T01:40:44.234Z,2.69
2023-02-03T01:43:11.534Z,2.65
2023-02-03T01:45:40.327Z,2.69
2023-02-03T01:48:08.252Z,2.61
2023-02-03T01:50:36.686Z,2.63
2023-02-03T01:53:07.226Z,2.61
2023-02-03T01:55:43.775Z,2.58
2023-02-03T01:58:19.869Z,2.56
2023-02-03T02:00:47.939Z,2.59
2023-02-03T02:03:14.576Z,2.65
2023-02-03T02:05:46.845Z,2.59
2023-02-03T02:08:14.004Z,2.61
2023-02-03T02:10:41.011Z,2.73
2023-02-03T02:13:08.185Z,2.69
2023-02-03T02:16:01.596Z,2.66
2023-02-03T02:18:43.583Z,2.67
2023-02-03T02:21:27.231Z,2.70
2023-02-03T02:24:07.716Z,2.58
2023-02-03T02:26:57.820Z,2.65
2023-02-03T02:29:50.900Z,2.71
2023-02-03T02:36:11.391Z,2.73
2023-02-03T02:38:47.486Z,2.88
2023-02-03T02:41:26.626Z,2.79
2023-02-03T02:44:09.191Z,2.74
2023-02-03T02:46:43.447Z,2.91
2023-02-03T02:52:51.658Z,2.94
2023-02-03T02:55:27.702Z,2.89
2023-02-03T02:57:57.272Z,3.03
2023-02-03T03:00:24.057Z,2.97
2023-02-03T03:02:51.105Z,3.02
2023-02-03T03:05:18.525Z,2.96
2023-02-03T03:07:48.962Z,2.92
2023-02-03T03:10:19.256Z,2.85
2023-02-03T03:12:50.016Z,2.88
2023-02-03T03:15:22.874Z,2.89
2023-02-03T03:17:56.939Z,2.90
2023-02-03T03:20:26.218Z,2.93
2023-02-03T03:23:33.377Z,2.91
2023-02-03T03:26:33.100Z,2.93
2023-02-03T03:29:26.244Z,2.96
2023-02-03T03:31:52.888Z,3.05
2023-02-03T03:34:19.830Z,3.03
2023-02-03T03:36:50.294Z,3.04
2023-02-03T03:39:28.769Z,3.13
2023-02-03T03:42:08.187Z,3.14
2023-02-03T03:44:45.022Z,3.20
2023-02-03T03:47:40.989Z,3.29
2023-02-03T03:50:11.667Z,3.17
2023-02-03T03:52:39.233Z,3.21
2023-02-03T03:55:08.927Z,3.37
2023-02-03T03:57:45.601Z,3.39
2023-02-03T04:00:15.583Z,3.50
2023-02-03T04:02:42.583Z,3.60
2023-02-03T04:05:10.872Z,3.74
2023-02-03T04:07:44.849Z,3.85
2023-02-03T04:10:23.465Z,3.89
2023-02-03T04:12:49.866Z,3.91
2023-02-03T04:15:16.479Z,3.92
2023-02-03T04:17:42.955Z,4.04
2023-02-03T04:20:10.006Z,4.21
2023-02-03T04:22:36.487Z,4.31
2023-02-03T04:25:03.057Z,4.40
2023-02-03T04:27:29.475Z,4.53
2023-02-03T04:29:55.888Z,4.58
2023-02-03T04:32:22.298Z,4.68
2023-02-03T04:34:49.081Z,4.77
2023-02-03T04:37:15.551Z,4.88
2023-02-03T04:39:41.979Z,5.03
2023-02-03T04:42:08.402Z,5.11
2023-02-03T04:44:34.872Z,5.14
2023-02-03T04:47:01.674Z,5.17
2023-02-03T04:53:08.874Z,5.26
2023-02-03T04:55:35.311Z,5.37
2023-02-03T04:58:02.239Z,5.41
2023-02-03T05:00:29.540Z,5.49
2023-02-03T05:02:58.509Z,5.47
2023-02-03T05:05:25.140Z,5.48
2023-02-03T05:07:51.557Z,5.49
2023-02-03T05:13:58.856Z,5.56
2023-02-03T05:20:07.024Z,5.57
2023-02-03T05:22:35.485Z,5.64
2023-02-03T05:25:04.376Z,5.60
2023-02-03T05:27:31.545Z,5.60
2023-02-03T05:29:58.059Z,5.60
2023-02-03T05:36:05.622Z,5.66
2023-02-03T05:38:32.001Z,5.71
2023-02-03T05:41:17.296Z,5.71
2023-02-03T05:43:43.737Z,5.71
2023-02-03T05:46:13.551Z,5.68
2023-02-03T05:48:40.076Z,5.69
2023-02-03T05:51:06.427Z,5.70
2023-02-03T05:53:32.794Z,5.65
2023-02-03T05:56:02.955Z,5.66
2023-02-03T05:58:29.408Z,5.67
2023-02-03T06:00:55.825Z,5.76
2023-02-03T06:03:22.313Z,5.82
2023-02-03T06:05:49.106Z,5.87
2023-02-03T06:08:15.544Z,5.90
2023-02-03T06:10:42.160Z,5.88
2023-02-03T06:13:13.161Z,5.88
2023-02-03T06:15:40.466Z,5.92
2023-02-03T06:18:07.640Z,5.94
2023-02-03T06:20:34.761Z,6.00
2023-02-03T06:23:01.655Z,5.96
2023-02-03T06:25:28.255Z,5.97
2023-02-03T06:27:55.521Z,6.07
2023-02-03T06:30:23.729Z,6.05
2023-02-03T06:32:50.244Z,6.08
2023-02-03T06:35:17.695Z,6.05
2023-02-03T06:37:44.857Z,6.04
2023-02-03T06:40:12.105Z,6.06
2023-02-03T06:42:38.575Z,6.06
2023-02-03T06:45:05.544Z,6.12
2023-02-03T06:47:32.018Z,6.12
2023-02-03T06:49:58.404Z,6.14
2023-02-03T06:52:24.812Z,6.17
2023-02-03T06:54:51.194Z,6.15
2023-02-03T06:57:17.682Z,6.12
2023-02-03T06:59:44.146Z,6.10
2023-02-03T07:02:11.610Z,6.11
2023-02-03T07:04:38.912Z,6.07
2023-02-03T07:07:05.781Z,6.13
2023-02-03T07:09:32.584Z,6.10
2023-02-03T07:11:59.374Z,6.09
2023-02-03T07:14:25.848Z,6.04
2023-02-03T07:16:52.451Z,6.08
2023-02-03T07:19:18.916Z,6.10
2023-02-03T07:21:45.416Z,6.05
2023-02-03T07:24:11.976Z,6.12
2023-02-03T07:26:39.198Z,6.15
2023-02-03T07:29:05.725Z,6.17
2023-02-03T07:31:32.337Z,6.18
2023-02-03T07:33:59.070Z,6.22
2023-02-03T07:36:27.433Z,6.25
2023-02-03T07:38:53.792Z,6.27
2023-02-03T07:41:20.458Z,6.29
2023-02-03T07:43:50.288Z,6.37
2023-02-03T07:46:17.697Z,6.49
2023-02-03T07:48:44.223Z,6.50
2023-02-03T07:51:10.630Z,6.48
2023-02-03T07:53:37.165Z,6.42
2023-02-03T07:56:04.463Z,6.41
2023-02-03T07:58:31.283Z,6.38
2023-02-03T08:00:58.491Z,6.40
2023-02-03T08:03:25.406Z,6.39
2023-02-03T08:05:53.403Z,6.35
2023-02-03T08:08:19.862Z,6.33
2023-02-03T08:10:46.317Z,6.30
2023-02-03T08:13:12.753Z,6.27
2023-02-03T08:15:39.210Z,6.31
2023-02-03T08:18:05.784Z,6.28
2023-02-03T08:20:32.247Z,6.29
2023-02-03T08:22:58.668Z,6.28
2023-02-03T08:25:25.079Z,6.27
2023-02-03T08:27:53.290Z,6.28
2023-02-03T08:30:19.889Z,6.29
2023-02-03T08:32:46.339Z,6.33
2023-02-03T08:35:12.822Z,6.35
2023-02-03T08:37:39.393Z,6.26
2023-02-03T08:40:06.828Z,6.28
2023-02-03T08:42:33.574Z,6.25
2023-02-03T08:45:00.012Z,6.26
2023-02-03T08:47:26.782Z,6.27
2023-02-03T08:49:53.293Z,6.30
2023-02-03T08:52:19.864Z,6.29
2023-02-03T08:54:47.348Z,6.27
2023-02-03T08:57:14.423Z,6.30
2023-02-03T08:59:43.051Z,6.36
2023-02-03T09:02:14.520Z,6.31
2023-02-03T09:04:40.943Z,6.34
2023-02-03T09:07:07.364Z,6.34
2023-02-03T09:09:36.891Z,6.35
2023-02-03T09:12:05.448Z,6.34
2023-02-03T09:14:33.247Z,6.31
2023-02-03T09:17:01.632Z,6.30
2023-02-03T09:19:28.274Z,6.29
2023-02-03T09:21:54.782Z,6.27
2023-02-03T09:24:22.277Z,6.25
2023-02-03T09:26:49.199Z,6.28
2023-02-03T09:29:16.070Z,6.32
2023-02-03T09:31:42.739Z,6.31
2023-02-03T09:34:10.016Z,6.32
2023-02-03T09:36:37.615Z,6.34
2023-02-03T09:39:04.347Z,6.37
2023-02-03T09:41:51.885Z,6.38
2023-02-03T09:44:37.479Z,6.41
2023-02-03T09:47:11.981Z,6.38
2023-02-03T09:49:47.090Z,6.36
2023-02-03T09:52:22.873Z,6.36
2023-02-03T09:55:01.485Z,6.32
2023-02-03T09:57:30.807Z,6.32
2023-02-03T09:59:58.805Z,6.35
2023-02-03T10:02:33.034Z,6.34
2023-02-03T10:05:12.394Z,6.35
2023-02-03T10:08:01.926Z,6.38
2023-02-03T10:10:41.951Z,6.44
2023-02-03T10:13:26.865Z,6.49
2023-02-03T10:16:02.251Z,6.58
2023-02-03T10:18:33.237Z,6.58
2023-02-03T10:21:06.205Z,6.55
2023-02-03T10:23:39.080Z,6.56
2023-02-03T10:26:08.549Z,6.55
2023-02-03T10:28:41.606Z,6.53
2023-02-03T10:31:16.980Z,6.54
2023-02-03T10:33:43.496Z,6.62
2023-02-03T10:36:16.228Z,6.62
2023-02-03T10:38:54.973Z,6.68
2023-02-03T10:41:22.243Z,6.71
2023-02-03T10:43:53.102Z,6.68
2023-02-03T10:46:34.098Z,6.75
2023-02-03T10:49:00.874Z,6.75
2023-02-03T10:51:31.841Z,6.78
2023-02-03T10:53:58.356Z,6.78
2023-02-03T10:56:40.126Z,6.79
2023-02-03T10:59:07.388Z,6.87
2023-02-03T11:01:42.493Z,6.89
2023-02-03T11:04:31.019Z,6.90
2023-02-03T11:07:06.890Z,6.88
2023-02-03T11:09:41.490Z,6.89
2023-02-03T11:12:19.634Z,6.93
2023-02-03T11:14:50.987Z,7.03
2023-02-03T11:17:29.516Z,7.07
2023-02-03T11:20:15.038Z,7.05
2023-02-03T11:22:42.386Z,7.02
2023-02-03T11:25:18.573Z,7.02
2023-02-03T11:27:45.192Z,7.01
2023-02-03T11:30:15.556Z,6.97
2023-02-03T11:32:43.485Z,6.91
2023-02-03T11:35:12.925Z,6.97
2023-02-03T11:37:43.288Z,7.00
2023-02-03T11:40:12.594Z,6.97
2023-02-03T11:42:43.473Z,6.96
2023-02-03T11:45:15.246Z,6.95
2023-02-03T11:47:51.587Z,6.98
2023-02-03T11:50:31.317Z,6.99
2023-02-03T11:53:08.310Z,6.97
2023-02-03T11:55:53.569Z,7.01
2023-02-03T11:58:51.453Z,7.05
2023-02-03T12:01:55.545Z,7.10
2023-02-03T12:04:42.709Z,7.16
2023-02-03T12:07:42.691Z,7.20
2023-02-03T12:10:36.751Z,7.31
2023-02-03T12:13:16.694Z,7.38
2023-02-03T12:16:04.602Z,7.37
2023-02-03T12:18:49.738Z,7.35
2023-02-03T12:21:43.078Z,7.29
2023-02-03T12:24:19.163Z,7.24
2023-02-03T12:27:12.524Z,7.27
2023-02-03T12:29:43.251Z,7.26
2023-02-03T12:32:17.571Z,7.26
2023-02-03T12:34:52.627Z,7.27
2023-02-03T12:37:23.882Z,7.28
2023-02-03T12:40:05.322Z,7.30
2023-02-03T12:42:46.410Z,7.30
2023-02-03T12:45:25.724Z,7.40
2023-02-03T12:47:57.231Z,7.36
2023-02-03T12:50:30.966Z,7.37
2023-02-03T12:53:05.940Z,7.43
2023-02-03T12:55:55.192Z,7.46
2023-02-03T12:58:25.334Z,7.45
2023-02-03T13:00:59.746Z,7.48
2023-02-03T13:03:34.418Z,7.42
2023-02-03T13:06:25.138Z,7.34
2023-02-03T13:09:01.561Z,7.30
2023-02-03T13:11:39.158Z,7.13
2023-02-03T13:14:15.386Z,6.93
2023-02-03T13:16:44.820Z,6.83
2023-02-03T13:19:17.219Z,6.62
2023-02-03T13:21:43.998Z,6.42
2023-02-03T13:24:11.148Z,6.23
2023-02-03T13:26:55.852Z,6.15
2023-02-03T13:29:48.021Z,6.19
2023-02-03T13:32:41.185Z,6.15
2023-02-03T13:35:24.784Z,6.13
2023-02-03T13:38:17.497Z,6.13
2023-02-03T13:41:14.053Z,6.21
2023-02-03T13:43:48.177Z,6.15
2023-02-03T13:46:31.003Z,6.21
2023-02-03T13:48:59.815Z,6.23
2023-02-03T13:51:34.619Z,6.24
2023-02-03T13:54:04.065Z,6.27
2023-02-03T13:56:31.107Z,6.28
2023-02-03T13:59:05.280Z,6.27
2023-02-03T14:01:33.439Z,6.28
2023-02-03T14:04:00.721Z,6.22
2023-02-03T14:06:39.387Z,6.17
2023-02-03T14:09:23.840Z,6.16
2023-02-03T14:11:51.983Z,6.00
2023-02-03T14:14:20.709Z,6.02
2023-02-03T14:16:48.863Z,6.07
2023-02-03T14:19:21.443Z,5.97
2023-02-03T14:21:53.963Z,5.90
2023-02-03T14:24:21.635Z,6.00
2023-02-03T14:26:51.997Z,5.95
2023-02-03T14:29:30.300Z,5.89
2023-02-03T14:31:59.126Z,5.98
2023-02-03T14:34:30.392Z,6.05
2023-02-03T14:36:57.213Z,6.05
2023-02-03T14:39:55.348Z,6.02
2023-02-03T14:42:29.695Z,6.11
2023-02-03T14:45:17.015Z,6.15
2023-02-03T14:47:49.737Z,6.20
2023-02-03T14:50:22.268Z,6.22
2023-02-03T14:53:05.385Z,6.16
2023-02-03T14:55:57.061Z,6.17
2023-02-03T14:58:32.232Z,6.14
2023-02-03T15:01:00.607Z,6.17
2023-02-03T15:03:30.304Z,6.19
2023-02-03T15:05:58.280Z,6.18
2023-02-03T15:08:42.351Z,6.14
2023-02-03T15:11:25.713Z,6.19
2023-02-03T15:13:54.305Z,6.22
2023-02-03T15:16:25.153Z,6.22
2023-02-03T15:18:57.923Z,6.19
2023-02-03T15:21:24.891Z,6.08
2023-02-03T15:23:52.120Z,6.04
2023-02-03T15:26:24.359Z,6.00
2023-02-03T15:28:55.340Z,6.00
2023-02-03T15:31:41.674Z,5.95
2023-02-03T15:34:28.943Z,5.97
2023-02-03T15:36:59.844Z,5.96
2023-02-03T15:39:43.249Z,5.95
2023-02-03T15:42:17.760Z,5.93
2023-02-03T15:44:53.019Z,6.05
2023-02-03T15:47:39.834Z,6.10
2023-02-03T15:50:25.398Z,6.10
2023-02-03T15:52:54.219Z,6.11
2023-02-03T15:55:45.518Z,6.13
2023-02-03T15:58:22.663Z,6.20
2023-02-03T16:00:53.038Z,6.17
2023-02-03T16:03:30.082Z,6.28
2023-02-03T16:05:56.494Z,6.31
2023-02-03T16:08:31.004Z,6.39
2023-02-03T16:10:57.518Z,6.40
2023-02-03T16:13:26.177Z,6.43
2023-02-03T16:16:02.356Z,6.54
2023-02-03T16:18:29.159Z,6.53
2023-02-03T16:20:55.944Z,6.60
2023-02-03T16:23:24.680Z,6.52
2023-02-03T16:26:05.956Z,6.53
2023-02-03T16:28:51.304Z,6.56
2023-02-03T16:31:38.272Z,6.50
2023-02-03T16:34:36.217Z,6.62
2023-02-03T16:37:31.143Z,6.63
2023-02-03T16:40:16.648Z,6.65
2023-02-03T16:43:02.393Z,6.75
2023-02-03T16:45:47.751Z,6.72
2023-02-03T16:48:33.125Z,6.72
2023-02-03T16:51:04.980Z,6.76
2023-02-03T16:53:32.515Z,6.71
2023-02-03T16:56:02.433Z,6.75
2023-02-03T16:58:28.863Z,6.77
2023-02-03T17:00:55.918Z,6.84
2023-02-03T17:03:25.519Z,6.86
2023-02-03T17:05:52.352Z,6.87
2023-02-03T17:08:21.438Z,6.76
2023-02-03T17:10:48.600Z,6.73
2023-02-03T17:13:18.515Z,6.83
2023-02-03T17:15:47.307Z,6.76
2023-02-03T17:18:17.774Z,6.65
2023-02-03T17:20:44.855Z,6.56
2023-02-03T17:23:12.393Z,6.52
2023-02-03T17:25:40.117Z,6.55
2023-02-03T17:28:08.313Z,6.51
2023-02-03T17:30:35.493Z,6.55
2023-02-03T17:33:03.726Z,6.63
2023-02-03T17:35:30.375Z,6.68
2023-02-03T17:37:57.245Z,6.67
2023-02-03T17:54:06.560Z,6.74
2023-02-03T17:56:35.414Z,6.81
2023-02-03T17:59:03.512Z,6.81
2023-02-03T18:01:30.661Z,6.76
2023-02-03T18:04:08.767Z,6.79
2023-02-03T18:06:35.611Z,6.83
2023-02-03T18:09:03.738Z,6.82
2023-02-03T18:11:31.226Z,6.84
2023-02-03T18:13:57.811Z,6.86
2023-02-03T18:16:27.923Z,6.89
2023-02-03T18:18:54.971Z,6.89
2023-02-03T18:21:23.496Z,6.87
2023-02-03T18:23:51.585Z,6.89
2023-02-03T18:26:19.779Z,6.89
2023-02-03T18:28:46.795Z,6.81
2023-02-03T18:31:15.414Z,6.81
2023-02-03T18:33:43.254Z,6.78
2023-02-03T18:36:15.803Z,6.78
2023-02-03T18:38:44.316Z,6.78
2023-02-03T18:41:17.786Z,6.74
2023-02-03T18:43:51.718Z,6.72
2023-02-03T18:46:29.639Z,6.73
2023-02-03T18:48:56.474Z,6.73
2023-02-03T18:51:24.237Z,6.72
2023-02-03T18:53:51.135Z,6.71
2023-02-03T18:56:26.253Z,6.72
2023-02-03T18:58:52.847Z,6.73
2023-02-03T19:01:27.721Z,6.67
2023-02-03T19:03:55.428Z,6.70
2023-02-03T19:06:22.196Z,6.54
2023-02-03T19:08:48.665Z,6.40
2023-02-03T19:11:15.151Z,6.30
2023-02-03T19:13:42.009Z,6.32
2023-02-03T19:16:09.765Z,6.35
2023-02-03T19:18:36.258Z,6.43
2023-02-03T19:21:03.045Z,6.48
2023-02-03T19:23:29.492Z,6.52
2023-02-03T19:25:56.012Z,6.56
2023-02-03T19:28:30.396Z,6.58
2023-02-03T19:31:11.687Z,6.54
2023-02-03T19:33:38.250Z,6.54
2023-02-03T19:36:06.363Z,6.49
2023-02-03T19:38:33.911Z,6.58
2023-02-03T19:41:03.329Z,6.54
2023-02-03T19:43:30.420Z,6.51
2023-02-03T19:45:56.913Z,6.47
2023-02-03T19:48:23.425Z,6.39
2023-02-03T19:50:49.831Z,6.36
2023-02-03T19:53:17.287Z,6.32
2023-02-03T19:55:43.984Z,6.30
2023-02-03T19:58:11.061Z,6.26
2023-02-03T20:00:37.517Z,6.18
2023-02-03T20:03:03.973Z,6.14
2023-02-03T20:05:30.554Z,6.14
2023-02-03T20:07:57.103Z,6.14
2023-02-03T20:10:26.297Z,6.17
2023-02-03T20:12:53.824Z,6.13
2023-02-03T20:15:20.643Z,6.12
2023-02-03T20:17:47.380Z,6.10
2023-02-03T20:20:13.906Z,6.07
2023-02-03T20:22:40.298Z,6.08
2023-02-03T20:25:07.045Z,6.00
2023-02-03T20:27:33.666Z,6.02
2023-02-03T20:30:00.160Z,5.94
2023-02-03T20:32:26.647Z,5.93
2023-02-03T20:34:53.130Z,5.94
2023-02-03T20:37:19.589Z,5.92
2023-02-03T20:39:46.033Z,5.87
2023-02-03T20:42:17.245Z,5.74
2023-02-03T20:44:44.204Z,5.72
2023-02-03T20:47:12.527Z,5.55
2023-02-03T20:49:39.114Z,5.57
2023-02-03T20:52:16.094Z,5.52
2023-02-03T20:54:42.826Z,5.54
2023-02-03T20:57:17.902Z,5.55
2023-02-03T20:59:45.238Z,5.56
2023-02-03T21:02:19.062Z,5.63
2023-02-03T21:04:57.820Z,5.69
2023-02-03T21:07:27.385Z,5.69
2023-02-03T21:09:54.511Z,5.65
2023-02-03T21:12:21.029Z,5.60
2023-02-03T21:14:53.115Z,5.53
2023-02-03T21:17:22.308Z,5.44
2023-02-03T21:19:49.312Z,5.35
2023-02-03T21:22:26.703Z,5.31
2023-02-03T21:25:03.350Z,5.27
2023-02-03T21:27:32.422Z,5.17
2023-02-03T21:30:01.094Z,5.18
2023-02-03T21:32:47.924Z,5.14
2023-02-03T21:35:26.507Z,5.09
2023-02-03T21:37:57.162Z,5.07
2023-02-03T21:40:34.500Z,5.05
2023-02-03T21:43:04.908Z,5.00
2023-02-03T21:45:43.670Z,5.00
2023-02-03T21:48:30.221Z,4.97
2023-02-03T21:51:00.698Z,4.94
2023-02-03T21:53:29.401Z,4.94
2023-02-03T21:55:55.914Z,4.91
2023-02-03T21:58:32.153Z,4.93
2023-02-03T22:01:00.743Z,4.92
2023-02-03T22:03:37.037Z,4.87
2023-02-03T22:06:09.257Z,4.89
2023-02-03T22:08:46.701Z,4.87
2023-02-03T22:11:14.066Z,4.87
2023-02-03T22:13:40.715Z,4.86
2023-02-03T22:16:07.485Z,4.90
2023-02-03T22:18:34.633Z,4.85
2023-02-03T22:21:02.043Z,4.84
2023-02-03T22:23:28.878Z,4.80
2023-02-03T22:25:55.284Z,4.77
2023-02-03T22:28:21.722Z,4.72
2023-02-03T22:30:48.269Z,4.73
2023-02-03T22:33:14.802Z,4.70
2023-02-03T22:35:41.190Z,4.71
2023-02-03T22:38:07.627Z,4.70
2023-02-03T22:40:34.553Z,4.71
2023-02-03T22:43:00.936Z,4.69
2023-02-03T22:45:27.318Z,4.68
2023-02-03T22:47:53.780Z,4.70
2023-02-03T22:50:27.134Z,4.69
2023-02-03T22:52:57.642Z,4.67
2023-02-03T22:55:24.029Z,4.67
2023-02-03T22:57:50.592Z,4.66
2023-02-03T23:00:20.946Z,4.67
2023-02-03T23:02:47.967Z,4.67
2023-02-03T23:05:14.906Z,4.68
2023-02-03T23:07:41.328Z,4.65
2023-02-03T23:10:10.608Z,4.66
2023-02-03T23:12:37.333Z,4.68
2023-02-03T23:15:04.570Z,4.67
2023-02-03T23:17:31.168Z,4.70
2023-02-03T23:19:57.627Z,4.68
2023-02-03T23:22:24.031Z,4.67
2023-02-03T23:24:50.442Z,4.67
2023-02-03T23:27:16.853Z,4.68
2023-02-03T23:29:43.476Z,4.67
2023-02-03T23:32:10.964Z,4.70
2023-02-03T23:34:55.890Z,4.69
2023-02-03T23:37:22.610Z,4.71
2023-02-03T23:39:50.318Z,4.70
2023-02-03T23:42:16.745Z,4.71
2023-02-03T23:44:43.171Z,4.70
2023-02-03T23:47:09.935Z,4.71
2023-02-03T23:49:36.430Z,4.77
2023-02-03T23:52:02.830Z,4.62
2023-02-03T23:54:29.346Z,4.42
2023-02-03T23:56:55.800Z,4.25
2023-02-03T23:59:22.256Z,4.07
